Monday, December 5, 2016, 11:31 AM EST

KMUI, Muir Army Air Field / Indiantown

Location: Jonestown, PA, United States Lat: 40.433
Local Time: 11:31 AM EST (16:31 GMT) Lon: -76.567
Time Zone: US/Eastern Elev: 488 ft

Show me the last for .
Show Decoded

2016-12-05 10:58 METAR KMUI 051558Z AUTO 21004KT 10SM OVC006 05/05 A3000 RMK AO2 SLP165 T00450045
                 =
2016-12-05 10:40 METAR KMUI 051540Z AUTO 22004KT 9SM OVC006 04/04 A3001 RMK AO2 =
2016-12-05 10:24 METAR KMUI 051524Z AUTO VRB01KT 9SM OVC005 03/03 A3001 RMK AO2 =
2016-12-05 09:58 METAR KMUI 051458Z AUTO VRB02KT 7SM OVC004 03/03 A3000 RMK AO2 DZE05 SLP166
                 P0000 60001 T00270027 50007 =
2016-12-05 09:05 METAR KMUI 051405Z AUTO 11001KT 5SM BR OVC006 02/02 A3000 RMK AO2 DZE05 =
2016-12-05 08:58 METAR KMUI 051358Z AUTO 06002KT 4SM -DZ BR OVC005 02/02 A3000 RMK AO2
                 DZB44E52RAB52E56DZB56 SLP166 P0000 T00160016 =
2016-12-05 08:48 METAR KMUI 051348Z AUTO 00000KT 4SM -DZ BR OVC005 01/01 A3000 RMK AO2 DZB44 =
2016-12-05 08:44 METAR KMUI 051344Z AUTO 03001KT 4SM -DZ BR OVC004 01/01 A3000 RMK AO2 DZB44 =
2016-12-05 08:30 METAR KMUI 051330Z AUTO 07001KT 4SM BR OVC004 01/01 A2999 RMK AO2 =
2016-12-05 08:12 METAR KMUI 051312Z AUTO 00000KT 3SM BR OVC005 01/01 A2999 RMK AO2 =
2016-12-05 07:58 METAR KMUI 051258Z AUTO 00000KT 4SM BR OVC004 01/01 A2999 RMK AO2
                 RAB26E36DZB36E38 SLP163 P0001 T00100010 =
2016-12-05 07:38 METAR KMUI 051238Z AUTO 04001KT 4SM BR OVC004 00/00 A2998 RMK AO2
                 RAB26E36DZB36E38 =
2016-12-05 07:26 METAR KMUI 051226Z AUTO 06001KT 4SM -RA BR OVC004 00/00 A2998 RMK AO2 RAB26 =
2016-12-05 07:22 METAR KMUI 051222Z AUTO 03001KT 5SM BR OVC004 00/00 A2999 RMK AO2 =
2016-12-05 07:18 METAR KMUI 051218Z AUTO 01001KT 5SM BR OVC005 00/00 A2999 RMK AO2 =
2016-12-05 07:06 METAR KMUI 051206Z AUTO 01001KT 5SM BR OVC004 00/00 A2998 RMK AO2 =
2016-12-05 07:04 METAR KMUI 051204Z AUTO 05002KT 5SM BR OVC005 00/00 A2997 RMK AO2 =
2016-12-05 06:58 METAR KMUI 051158Z AUTO 06001KT 5SM BR OVC004 01/01 A2998 RMK AO2 SLP159 P0001
                 60023 70025 T00070007 10031 20001 55000 =
2016-12-05 05:58 METAR KMUI 051058Z AUTO 02002KT 5SM BR OVC004 01/01 A2997 RMK AO2 RAB32E53
                 SLP156 P0001 T00050005 =
2016-12-05 05:53 METAR KMUI 051053Z AUTO 03002KT 5SM BR OVC004 00/00 A2997 RMK AO2 RAB32E53 =
2016-12-05 05:32 METAR KMUI 051032Z AUTO 02003KT 4SM -RA BR OVC003 00/00 A2997 RMK AO2 RAB32 =
2016-12-05 05:22 METAR KMUI 051022Z AUTO 01003KT 3SM BR OVC004 00/00 A2997 RMK AO2 =
2016-12-05 05:14 METAR KMUI 051014Z AUTO 03002KT 2 1/2SM BR OVC004 00/00 A2997 RMK AO2 =
2016-12-05 05:08 METAR KMUI 051008Z AUTO 04002KT 2 1/2SM BR OVC005 00/00 A2998 RMK AO2 =
2016-12-05 04:58 METAR KMUI 050958Z AUTO 04002KT 2 1/2SM BR OVC004 00/00 A2998 RMK AO2
                 DZB05E22RAB22E37DZB37E54 SLP159 P0004 T00040004 =
2016-12-05 04:54 METAR KMUI 050954Z AUTO 03002KT 2 1/2SM BR OVC004 00/00 A2998 RMK AO2
                 DZB05E22RAB22E37DZB37E54 =
2016-12-05 04:13 METAR KMUI 050913Z AUTO 05003KT 2 1/2SM -DZ BR OVC003 00/00 A2999 RMK AO2 VIS 2
                 1/2V3 DZB05 =
2016-12-05 04:05 METAR KMUI 050905Z AUTO 02004KT 3SM -DZ BR OVC003 00/00 A2998 RMK AO2 DZB05 =
2016-12-05 04:00 METAR KMUI 050900Z AUTO 02003KT 3SM BR OVC003 00/00 A2998 RMK AO2 =
2016-12-05 03:58 METAR KMUI 050858Z AUTO 01002KT 2 1/2SM BR OVC003 00/00 A2998 RMK AO2 VIS 2V2
                 1/2 SNE03UPB03E04FZRAB04E26FZDZB26E47 SLP159 P0003 60017 T00010001 56014 =
2016-12-05 03:47 METAR KMUI 050847Z AUTO 04002KT 2SM BR OVC003 00/00 A2998 RMK AO2 VIS 1 1/4V2
                 SNE03UPB03E04FZRAB04E26FZDZB26E47 =
2016-12-05 03:41 METAR KMUI 050841Z AUTO 03002KT 1 1/2SM -FZDZ BR OVC003 00/00 A2998 RMK AO2 VIS
                 3/4V1 1/2 SNE03UPB03E04FZRAB04E26FZDZB26 =
2016-12-05 03:37 METAR KMUI 050837Z AUTO 04002KT 1 1/4SM -FZDZ BR OVC003 00/00 A2998 RMK AO2 VIS
                 3/4V1 1/4 SNE03UPB03E04FZRAB04E26FZDZB26 =
2016-12-05 03:35 METAR KMUI 050835Z AUTO 04002KT 1SM -FZDZ BR VV003 00/00 A2998 RMK AO2
                 SNE03UPB03E04FZRAB04E26FZDZB26 RVRNO =
2016-12-05 03:25 METAR KMUI 050825Z AUTO 04002KT 3/4SM -FZRA BR VV004 00/00 A2999 RMK AO2 VIS
                 3/4V2 SNE03UPB03E04FZRAB04 RVRNO =
2016-12-05 03:23 METAR KMUI 050823Z AUTO 04002KT 1SM -FZRA BR VV004 00/00 A2999 RMK AO2 VIS 1V2
                 SNE03UPB03E04FZRAB04 RVRNO =
2016-12-05 03:21 METAR KMUI 050821Z AUTO 04002KT 1 1/4SM -FZRA BR OVC004 00/00 A2999 RMK AO2 VIS
                 1 1/4V2 SNE03UPB03E04FZRAB04 =
2016-12-05 03:20 METAR KMUI 050820Z AUTO 04002KT 1 1/4SM FZRA BR OVC004 00/00 A2999 RMK AO2 VIS 1
                 1/4V2 SNE03UPB03E04FZRAB04 =
2016-12-05 03:18 METAR KMUI 050818Z AUTO 04001KT 1 1/2SM FZRA BR OVC004 00/00 A2999 RMK AO2 VIS 1
                 1/4V2 SNE03UPB03E04FZRAB04 =
2016-12-05 03:12 METAR KMUI 050812Z AUTO 09001KT 2SM FZRA BR OVC005 00/00 A2999 RMK AO2 VIS 1V2
                 SNE03UPB03E04FZRAB04 =
2016-12-05 03:10 METAR KMUI 050810Z AUTO 10001KT 1 3/4SM FZRA BR OVC005 00/00 A2999 RMK AO2 VIS
                 1V1 3/4 SNE03UPB03E04FZRAB04 =
2016-12-05 03:08 METAR KMUI 050808Z AUTO 11001KT 1 1/4SM FZRA BR OVC005 00/00 A2999 RMK AO2
                 SNE03UPB03E04FZRAB04 =
2016-12-05 03:06 METAR KMUI 050806Z AUTO 13001KT 1SM FZRA BR VV005 00/00 A3000 RMK AO2 VIS 1V1
                 3/4 SNE03UPB03E04FZRAB04 RVRNO =
2016-12-05 03:04 METAR KMUI 050804Z AUTO 00000KT 1SM FZRA BR VV006 00/00 A3000 RMK AO2 VIS 1V2
                 SNE03UPB03E04FZRAB04 RVRNO =
2016-12-05 03:02 METAR KMUI 050802Z AUTO 00000KT 1SM -SN BR VV006 00/00 A3001 RMK AO2 VIS 1V2
                 RVRNO =
2016-12-05 03:00 METAR KMUI 050800Z AUTO 00000KT 1 1/4SM -SN BR OVC005 00/00 A3001 RMK AO2 VIS 1
                 1/4V2 =
2016-12-05 02:58 METAR KMUI 050758Z AUTO 06001KT 1 1/2SM -SN BR OVC005 00/00 A3001 RMK AO2 VIS 1
                 1/2V2 UPE34SNB34 SLP169 P0006 =
2016-12-05 02:44 METAR KMUI 050744Z AUTO 00000KT 2 1/2SM -SN BR OVC005 00/00 A3002 RMK AO2 VIS 2
                 1/2V3 UPE34SNB34 =
2016-12-05 02:40 METAR KMUI 050740Z AUTO 00000KT 2 1/2SM -SN BR OVC006 01/01 A3002 RMK AO2 VIS 2
                 1/2V4 UPE34SNB34 =
2016-12-05 02:28 METAR KMUI 050728Z AUTO 19001KT 4SM UP BR OVC006 01/01 A3001 RMK AO2 =
2016-12-05 02:26 METAR KMUI 050726Z AUTO 18002KT 5SM UP BR OVC007 01/01 A3001 RMK AO2 =
2016-12-05 02:16 METAR KMUI 050716Z AUTO 17003KT 4SM UP BR OVC006 01/01 A3000 RMK AO2 =
2016-12-05 01:58 METAR KMUI 050658Z AUTO 17004KT 6SM UP BR BKN007 OVC013 02/02 A3001 RMK AO2
                 RAE16UPB16E18RAB18E35UPB35 SLP169 P0008 T00180018 =
2016-12-05 01:45 METAR KMUI 050645Z AUTO 18007KT 5SM UP BR BKN008 OVC013 02/02 A3001 RMK AO2
                 RAE16UPB16E18RAB18E35UPB35 CIG 008V013 BKN V SCT =
2016-12-05 01:43 METAR KMUI 050643Z AUTO 18007KT 5SM UP BR SCT008 OVC013 02/02 A3002 RMK AO2
                 RAE16UPB16E18RAB18E35UPB35 =
2016-12-05 00:58 METAR KMUI 050558Z AUTO 18006KT 7SM -RA BKN013 OVC019 03/03 A3002 RMK AO2
                 RAE07RAB08 CIG 013V017 SLP172 P0002 60002 57021 =
2016-12-05 00:36 METAR KMUI 050536Z AUTO 16008KT 10SM -RA BKN019 BKN050 04/02 A3001 RMK AO2
                 RAE07RAB08 CIG 019V048 =
2016-12-05 00:34 METAR KMUI 050534Z AUTO 17008KT 10SM -RA BKN020 BKN048 04/02 A3001 RMK AO2
                 RAE07RAB08 CIG 020V048 BKN020 V SCT =
2016-12-05 00:08 METAR KMUI 050508Z AUTO 17006KT 10SM -RA SCT021 OVC047 04/01 A3002 RMK AO2
                 RAE07RAB08 =
2016-12-05 00:07 METAR KMUI 050507Z AUTO 17008KT 10SM SCT020 OVC047 04/01 A3002 RMK AO2 RAE07 =
2016-12-05 00:04 METAR KMUI 050504Z AUTO 18007KT 10SM -RA SCT020 OVC047 04/01 A3003 RMK AO2 =
2016-12-04 23:58 METAR KMUI 050458Z AUTO 18008KT 10SM -RA BKN020 BKN047 04/01 A3003 RMK AO2 RAB35
                 SLP175 P0000 T00400009 400700028 =
2016-12-04 23:45 METAR KMUI 050445Z AUTO 16006KT 10SM -RA BKN021 04/00 A3004 RMK AO2 RAB35 =
2016-12-04 23:41 METAR KMUI 050441Z AUTO 17009KT 10SM -RA BKN019 04/00 A3005 RMK AO2 RAB35 BKN V
                 SCT =
2016-12-04 23:35 METAR KMUI 050435Z AUTO 17009KT 10SM -RA FEW018 SCT025 05/00 A3005 RMK AO2 RAB35
                 =
2016-12-04 22:58 METAR KMUI 050358Z AUTO 17004KT 10SM SCT037 04/M01 A3008 RMK AO2 SLP192
                 T00431010 =
2016-12-04 21:58 METAR KMUI 050258Z AUTO 00000KT 10SM CLR 03/M01 A3009 RMK AO2 SLP196 T00321008
                 57021 =
2016-12-04 20:58 METAR KMUI 050158Z AUTO 00000KT 10SM FEW120 03/M02 A3011 RMK AO2 SLP203
                 T00341016 =
2016-12-04 19:58 METAR KMUI 050058Z AUTO 04003KT 10SM SCT120 BKN150 03/M02 A3011 RMK AO2 SLP203
                 T00301017 =
2016-12-04 18:58 METAR KMUI 042358Z AUTO 04002KT 10SM SCT150 03/M02 A3015 RMK AO2 SLP216
                 T00321021 10070 20029 55010 =
2016-12-04 17:58 METAR KMUI 042258Z AUTO 00000KT 10SM FEW160 SCT190 04/M03 A3016 RMK AO2 SLP219
                 T00391035 =
2016-12-04 16:58 METAR KMUI 042158Z AUTO 15002KT 10SM CLR 05/M04 A3015 RMK AO2 SLP216 T00541040 =
2016-12-04 15:58 METAR KMUI 042058Z AUTO 20002KT 10SM FEW160 06/M04 A3018 RMK AO2 SLP226
                 T00591043 55010 =
2016-12-04 14:58 METAR KMUI 041958Z AUTO 04003KT 10SM BKN180 06/M04 A3018 RMK AO2 SLP226
                 T00641043 =
2016-12-04 13:58 METAR KMUI 041858Z AUTO 35004KT 10SM BKN180 07/M04 A3020 RMK AO2 SLP233
                 T00661044 =
2016-12-04 12:58 METAR KMUI 041758Z AUTO VRB06KT 10SM FEW180 07/M04 A3021 RMK AO2 SLP236
                 T00671043 10068 20043 57017 =
2016-12-04 11:58 METAR KMUI 041658Z AUTO VRB04KT 10SM FEW043 06/M04 A3023 RMK AO2 SLP243
                 T00621045 =

Support USWX by starting your Amazon purchase here.